createdAt,value
2022-09-29T00:01:40.074Z,6.05
2022-09-29T00:04:13.981Z,5.63
2022-09-29T00:07:02.032Z,5.00
2022-09-29T00:09:42.012Z,5.40
2022-09-29T00:12:23.084Z,4.10
2022-09-29T00:15:03.039Z,4.18
2022-09-29T00:18:02.766Z,3.50
2022-09-29T00:20:45.048Z,4.10
2022-09-29T00:23:26.161Z,4.05
2022-09-29T00:26:08.020Z,3.72
2022-09-29T00:28:53.767Z,4.20
2022-09-29T00:31:36.051Z,3.28
2022-09-29T00:34:17.207Z,3.22
2022-09-29T00:36:58.034Z,3.50
2022-09-29T00:39:39.180Z,3.45
2022-09-29T00:42:20.012Z,3.05
2022-09-29T00:45:14.071Z,4.30
2022-09-29T00:47:56.026Z,5.53
2022-09-29T00:50:51.084Z,5.45
2022-09-29T00:53:33.037Z,5.55
2022-09-29T00:56:18.097Z,5.65
2022-09-29T00:59:02.050Z,4.65
2022-09-29T01:01:43.131Z,5.10
2022-09-29T01:04:25.040Z,5.22
2022-09-29T01:07:06.105Z,4.65
2022-09-29T01:09:47.057Z,4.93
2022-09-29T01:12:28.129Z,4.78
2022-09-29T01:15:09.035Z,5.25
2022-09-29T01:17:50.152Z,4.75
2022-09-29T01:20:32.047Z,5.25
2022-09-29T01:23:23.078Z,4.72
2022-09-29T01:26:32.032Z,4.95
2022-09-29T01:29:49.039Z,4.65
2022-09-29T01:32:29.029Z,4.82
2022-09-29T01:35:35.036Z,5.20
2022-09-29T01:38:15.317Z,5.57
2022-09-29T01:41:24.019Z,6.10
2022-09-29T01:44:08.027Z,5.82
2022-09-29T01:46:59.065Z,4.82
2022-09-29T01:49:59.010Z,5.40
2022-09-29T01:52:52.041Z,7.35
2022-09-29T01:55:28.206Z,5.50
2022-09-29T01:58:22.035Z,4.87
2022-09-29T02:01:02.209Z,4.00
2022-09-29T02:03:55.025Z,4.00
2022-09-29T02:06:31.140Z,3.53
2022-09-29T02:09:23.026Z,3.67
2022-09-29T02:12:00.122Z,3.45
2022-09-29T02:14:50.040Z,3.60
2022-09-29T02:17:45.125Z,3.42
2022-09-29T02:20:39.025Z,3.75
2022-09-29T02:23:26.025Z,3.30
2022-09-29T02:26:01.159Z,3.90
2022-09-29T02:28:49.029Z,3.20
2022-09-29T02:31:23.162Z,3.85
2022-09-29T02:34:11.041Z,3.25
2022-09-29T02:36:52.058Z,4.00
2022-09-29T02:39:54.041Z,4.20
2022-09-29T02:43:06.079Z,4.35
2022-09-29T02:46:12.068Z,4.00
2022-09-29T02:49:11.093Z,3.97
2022-09-29T02:51:56.048Z,3.33
2022-09-29T02:54:57.114Z,4.88
2022-09-29T02:57:43.070Z,3.63
2022-09-29T03:00:26.131Z,3.60
2022-09-29T03:03:06.075Z,3.45
2022-09-29T03:05:47.113Z,3.65
2022-09-29T03:08:27.041Z,5.40
2022-09-29T03:11:08.147Z,6.70
2022-09-29T03:13:55.090Z,6.05
2022-09-29T03:16:29.220Z,5.57
2022-09-29T03:19:16.054Z,5.55
2022-09-29T03:21:57.047Z,5.75
2022-09-29T03:24:51.060Z,5.25
2022-09-29T03:30:13.075Z,4.38
2022-09-29T03:32:47.141Z,5.18
2022-09-29T03:35:34.067Z,5.13
2022-09-29T03:38:15.073Z,5.03
2022-09-29T03:41:09.055Z,4.90
2022-09-29T03:46:37.064Z,4.63
2022-09-29T03:49:31.074Z,4.95
2022-09-29T03:52:18.034Z,5.05
2022-09-29T03:54:52.124Z,4.43
2022-09-29T03:57:39.059Z,4.47
2022-09-29T04:00:13.131Z,5.00
2022-09-29T04:03:04.051Z,4.35
2022-09-29T04:05:45.119Z,4.28
2022-09-29T04:08:25.079Z,5.00
2022-09-29T04:11:13.058Z,5.22
2022-09-29T04:13:48.043Z,6.72
2022-09-29T04:16:36.101Z,8.10
2022-09-29T04:19:10.041Z,9.43
2022-09-29T04:21:58.084Z,10.73
2022-09-29T04:24:32.006Z,8.63
2022-09-29T04:27:20.078Z,8.07
2022-09-29T04:29:53.988Z,6.93
2022-09-29T04:32:42.064Z,6.43
2022-09-29T04:35:16.022Z,4.97
2022-09-29T04:38:04.052Z,5.00
2022-09-29T04:40:38.187Z,5.80
2022-09-29T04:43:26.098Z,5.32
2022-09-29T04:46:14.200Z,5.28
2022-09-29T04:49:02.059Z,4.85
2022-09-29T04:51:36.227Z,5.30
2022-09-29T04:54:24.079Z,5.18
2022-09-29T04:56:58.074Z,5.38
2022-09-29T04:59:46.068Z,5.45
2022-09-29T05:02:27.211Z,5.30
2022-09-29T05:05:15.065Z,5.78
2022-09-29T05:07:49.549Z,6.35
2022-09-29T05:10:37.059Z,6.50
2022-09-29T05:13:18.117Z,7.07
2022-09-29T05:16:10.163Z,6.07
2022-09-29T05:18:51.053Z,6.53
2022-09-29T05:21:39.076Z,6.43
2022-09-29T05:24:33.066Z,6.88
2022-09-29T05:29:54.205Z,6.15
2022-09-29T05:32:35.094Z,6.18
2022-09-29T05:35:16.140Z,6.00
2022-09-29T05:37:58.060Z,6.63
2022-09-29T05:40:38.228Z,5.35
2022-09-29T05:43:19.069Z,5.75
2022-09-29T05:45:59.132Z,6.22
2022-09-29T05:48:40.089Z,7.15
2022-09-29T05:51:36.067Z,6.43
2022-09-29T05:54:23.099Z,6.03
2022-09-29T05:56:57.262Z,6.00
2022-09-29T05:59:44.059Z,6.18
2022-09-29T06:02:18.913Z,6.15
2022-09-29T06:05:07.086Z,6.35
2022-09-29T06:07:41.130Z,6.70
2022-09-29T06:10:29.084Z,6.82
2022-09-29T06:13:03.472Z,7.88
2022-09-29T06:15:50.070Z,7.28
2022-09-29T06:18:24.187Z,7.60
2022-09-29T06:21:22.083Z,7.63
2022-09-29T06:23:56.290Z,6.88
2022-09-29T06:26:43.093Z,8.65
2022-09-29T06:29:17.275Z,6.70
2022-09-29T06:32:04.176Z,6.72
2022-09-29T06:35:00.988Z,5.60
2022-09-29T06:37:51.098Z,5.97
2022-09-29T06:40:38.167Z,5.90
2022-09-29T06:43:25.078Z,6.60
2022-09-29T06:45:59.672Z,6.97
2022-09-29T06:48:46.076Z,6.10
2022-09-29T06:51:22.692Z,6.20
2022-09-29T06:54:12.440Z,5.93
2022-09-29T06:56:47.148Z,5.90
2022-09-29T06:59:34.105Z,6.68
2022-09-29T07:02:15.095Z,6.72
2022-09-29T07:05:09.071Z,5.70
2022-09-29T07:08:00.738Z,6.22
2022-09-29T07:10:35.379Z,6.10
2022-09-29T07:13:23.079Z,5.03
2022-09-29T07:15:57.214Z,5.20
2022-09-29T07:18:46.091Z,4.90
2022-09-29T07:21:22.114Z,5.55
2022-09-29T07:24:09.084Z,5.32
2022-09-29T07:26:50.161Z,5.20
2022-09-29T07:29:31.071Z,5.00
2022-09-29T07:32:23.968Z,5.50
2022-09-29T07:35:07.127Z,4.28
2022-09-29T07:37:48.254Z,4.32
2022-09-29T07:40:29.178Z,3.90
2022-09-29T07:43:10.234Z,4.63
2022-09-29T07:45:55.188Z,4.78
2022-09-29T07:48:36.483Z,4.60
2022-09-29T07:51:19.117Z,4.97
2022-09-29T07:54:00.231Z,3.97
2022-09-29T07:56:42.105Z,4.65
2022-09-29T07:59:23.258Z,3.63
2022-09-29T08:02:04.114Z,3.90
2022-09-29T08:04:45.144Z,4.82
2022-09-29T08:07:25.086Z,4.10
2022-09-29T08:10:15.777Z,4.60
2022-09-29T08:12:57.094Z,4.00
2022-09-29T08:15:38.281Z,3.10
2022-09-29T08:18:18.096Z,4.00
2022-09-29T08:21:01.411Z,4.10
2022-09-29T08:23:49.132Z,3.70
2022-09-29T08:26:43.363Z,5.07
2022-09-29T08:29:25.216Z,3.13
2022-09-29T08:32:13.149Z,2.60
2022-09-29T08:34:47.101Z,2.30
2022-09-29T08:37:35.638Z,3.53
2022-09-29T08:40:10.369Z,3.38
2022-09-29T08:43:02.142Z,2.60
2022-09-29T08:45:48.384Z,3.42
2022-09-29T08:48:55.658Z,3.22
2022-09-29T08:51:42.066Z,3.10
2022-09-29T08:54:46.093Z,2.40
2022-09-29T08:57:23.115Z,3.42
2022-09-29T09:00:11.112Z,2.38
2022-09-29T09:02:55.867Z,2.33
2022-09-29T09:05:46.193Z,2.65
2022-09-29T09:08:43.127Z,2.17
2022-09-29T09:11:33.324Z,2.65
2022-09-29T09:17:17.121Z,2.45
2022-09-29T09:20:08.106Z,2.22
2022-09-29T09:23:02.981Z,2.85
2022-09-29T09:25:56.101Z,2.00
2022-09-29T09:28:34.193Z,3.03
2022-09-29T09:31:27.119Z,2.33
2022-09-29T09:34:07.280Z,2.70
2022-09-29T09:37:07.574Z,2.63
2022-09-29T09:39:54.462Z,2.50
2022-09-29T09:42:44.132Z,1.73
2022-09-29T09:45:18.172Z,1.73
2022-09-29T09:48:13.122Z,1.92
2022-09-29T09:50:47.234Z,2.40
2022-09-29T09:53:37.125Z,2.08
2022-09-29T09:56:29.215Z,2.47
2022-09-29T09:59:16.217Z,2.67
2022-09-29T10:01:50.238Z,3.10
2022-09-29T10:04:40.139Z,2.47
2022-09-29T10:07:21.140Z,2.63
2022-09-29T10:10:18.112Z,1.77
2022-09-29T10:13:11.112Z,2.17
2022-09-29T10:15:55.107Z,2.63
2022-09-29T10:19:00.134Z,3.08
2022-09-29T10:21:51.102Z,4.20
2022-09-29T10:24:37.181Z,3.10
2022-09-29T10:27:26.140Z,2.95
2022-09-29T10:30:14.170Z,2.15
2022-09-29T10:32:55.200Z,3.63
2022-09-29T10:35:56.143Z,4.18
2022-09-29T10:38:37.148Z,3.28
2022-09-29T10:41:20.076Z,3.97
2022-09-29T10:44:01.126Z,2.90
2022-09-29T10:46:51.187Z,2.58
2022-09-29T10:49:35.117Z,4.32
2022-09-29T10:52:42.196Z,4.07
2022-09-29T10:55:24.122Z,4.10
2022-09-29T10:58:06.207Z,3.30
2022-09-29T11:00:56.170Z,3.60
2022-09-29T11:03:37.196Z,4.13
2022-09-29T11:06:21.142Z,3.63
2022-09-29T11:09:29.138Z,3.67
2022-09-29T11:12:38.141Z,3.60
2022-09-29T11:15:46.126Z,3.60
2022-09-29T11:18:20.145Z,3.47
2022-09-29T11:21:22.168Z,4.00
2022-09-29T11:24:05.242Z,4.05
2022-09-29T11:27:05.128Z,3.70
2022-09-29T11:29:45.308Z,4.80
2022-09-29T11:32:36.132Z,4.75
2022-09-29T11:35:10.024Z,3.45
2022-09-29T11:38:13.169Z,4.68
2022-09-29T11:41:28.107Z,2.38
2022-09-29T11:44:34.154Z,3.95
2022-09-29T11:47:35.142Z,4.55
2022-09-29T11:50:22.152Z,3.45
2022-09-29T11:53:12.225Z,3.30
2022-09-29T11:56:19.188Z,4.93
2022-09-29T11:59:01.158Z,4.47
2022-09-29T12:02:00.213Z,4.72
2022-09-29T12:04:40.242Z,3.90
2022-09-29T12:07:33.162Z,2.88
2022-09-29T12:10:33.171Z,4.03
2022-09-29T12:13:32.132Z,3.60
2022-09-29T12:16:21.199Z,3.50
2022-09-29T12:19:18.184Z,4.03
2022-09-29T12:22:07.155Z,3.38
2022-09-29T12:24:46.779Z,3.88
2022-09-29T12:27:33.168Z,3.25
2022-09-29T12:30:13.232Z,3.40
2022-09-29T12:33:13.153Z,3.58
2022-09-29T12:36:09.268Z,3.70
2022-09-29T12:39:09.454Z,4.27
2022-09-29T12:42:10.168Z,3.47
2022-09-29T12:44:48.759Z,3.95
2022-09-29T12:47:49.168Z,3.60
2022-09-29T12:50:33.281Z,3.28
2022-09-29T12:53:28.161Z,3.45
2022-09-29T12:56:14.270Z,3.03
2022-09-29T12:59:06.153Z,3.03
2022-09-29T13:01:54.180Z,2.83
2022-09-29T13:04:34.168Z,3.20
2022-09-29T13:07:38.663Z,2.92
2022-09-29T13:10:31.190Z,3.17
2022-09-29T13:13:28.199Z,3.05
2022-09-29T13:16:15.212Z,3.05
2022-09-29T13:19:22.877Z,2.75
2022-09-29T13:24:52.408Z,2.70
2022-09-29T13:27:39.229Z,2.67
2022-09-29T13:30:26.178Z,2.58
2022-09-29T13:33:28.195Z,2.53
2022-09-29T13:36:02.239Z,2.75
2022-09-29T13:38:56.439Z,2.53
2022-09-29T13:41:37.172Z,1.92
2022-09-29T13:44:31.161Z,2.88
2022-09-29T13:47:39.155Z,2.40
2022-09-29T13:50:39.145Z,2.80
2022-09-29T13:53:33.178Z,2.70
2022-09-29T13:56:34.182Z,2.30
2022-09-29T13:59:18.525Z,2.92
2022-09-29T14:02:06.269Z,3.10
2022-09-29T14:04:52.195Z,2.95
2022-09-29T14:07:52.203Z,2.95
2022-09-29T14:10:28.878Z,3.38
2022-09-29T14:13:18.194Z,3.23
2022-09-29T14:16:18.240Z,2.50
2022-09-29T14:19:43.172Z,2.80
2022-09-29T14:22:36.222Z,3.08
2022-09-29T14:25:23.180Z,2.90
2022-09-29T14:28:03.830Z,2.60
2022-09-29T14:30:51.253Z,2.50
2022-09-29T14:33:36.197Z,2.33
2022-09-29T14:36:38.178Z,2.20
2022-09-29T14:39:27.275Z,2.38
2022-09-29T14:42:08.248Z,2.70
2022-09-29T14:45:07.209Z,2.35
2022-09-29T14:48:06.956Z,2.75
2022-09-29T14:51:19.226Z,2.85
2022-09-29T14:54:14.313Z,3.08
2022-09-29T14:57:03.181Z,2.47
2022-09-29T14:59:53.307Z,3.00
2022-09-29T15:02:38.279Z,2.72
2022-09-29T15:05:38.201Z,2.90
2022-09-29T15:08:30.194Z,3.28
2022-09-29T15:11:18.187Z,2.28
2022-09-29T15:13:58.193Z,2.50
2022-09-29T15:16:40.990Z,2.53
2022-09-29T15:19:38.209Z,2.53
2022-09-29T15:22:49.176Z,2.25
2022-09-29T15:25:43.183Z,2.63
2022-09-29T15:28:52.187Z,3.40
2022-09-29T15:31:38.218Z,4.53
2022-09-29T15:34:22.415Z,3.28
2022-09-29T15:37:12.214Z,2.72
2022-09-29T15:40:05.194Z,2.35
2022-09-29T15:43:00.217Z,2.45
2022-09-29T15:45:47.195Z,2.60
2022-09-29T15:48:21.261Z,2.80
2022-09-29T15:51:08.194Z,2.80
2022-09-29T15:53:43.004Z,2.83
2022-09-29T15:56:31.650Z,3.38
2022-09-29T15:59:06.643Z,3.10
2022-09-29T16:01:57.088Z,3.38
2022-09-29T16:04:33.281Z,2.67
2022-09-29T16:07:29.207Z,2.85
2022-09-29T16:10:36.211Z,3.50
2022-09-29T16:13:26.228Z,2.90
2022-09-29T16:19:14.187Z,6.00
2022-09-29T16:22:03.233Z,4.35
2022-09-29T16:24:39.271Z,4.25
2022-09-29T16:27:46.207Z,3.03
2022-09-29T16:30:31.351Z,3.90
2022-09-29T16:33:22.200Z,3.90
2022-09-29T16:35:56.335Z,27.33
2022-09-29T16:38:48.226Z,20.00
2022-09-29T16:41:41.089Z,8.43
2022-09-29T16:44:37.224Z,12.18
2022-09-29T16:47:28.347Z,13.50
2022-09-29T16:50:17.218Z,7.95
2022-09-29T16:52:58.298Z,7.78
2022-09-29T16:55:40.232Z,6.95
2022-09-29T16:58:23.129Z,6.65
2022-09-29T17:01:04.285Z,8.25
2022-09-29T17:03:48.290Z,7.88
2022-09-29T17:06:28.200Z,12.30
2022-09-29T17:09:12.357Z,15.52
2022-09-29T17:11:55.219Z,8.60
2022-09-29T17:14:36.335Z,7.80
2022-09-29T17:17:24.216Z,7.30
2022-09-29T17:20:05.309Z,8.50
2022-09-29T17:22:45.211Z,8.32
2022-09-29T17:25:26.312Z,9.65
2022-09-29T17:28:19.225Z,11.07
2022-09-29T17:31:01.005Z,11.25
2022-09-29T17:33:42.248Z,11.77
2022-09-29T17:36:24.146Z,12.15
2022-09-29T17:39:04.230Z,14.70
2022-09-29T17:41:46.159Z,14.05
2022-09-29T17:44:27.517Z,15.45
2022-09-29T17:47:24.344Z,15.30
2022-09-29T17:50:21.234Z,14.43
2022-09-29T17:53:04.214Z,14.23
2022-09-29T17:55:45.254Z,15.10
2022-09-29T17:58:26.326Z,15.60
2022-09-29T18:01:06.235Z,20.00
2022-09-29T18:03:47.286Z,15.63
2022-09-29T18:06:29.252Z,13.25
2022-09-29T18:09:15.426Z,11.02
2022-09-29T18:11:55.211Z,12.00
2022-09-29T18:14:36.943Z,11.90
2022-09-29T18:17:17.243Z,11.43
2022-09-29T18:19:58.317Z,12.07
2022-09-29T18:22:38.218Z,13.60
2022-09-29T18:25:26.237Z,13.57
2022-09-29T18:28:07.242Z,21.70
2022-09-29T18:30:49.616Z,24.10
2022-09-29T18:33:30.232Z,21.00
2022-09-29T18:36:18.374Z,13.88
2022-09-29T18:38:52.176Z,18.17
2022-09-29T18:41:40.247Z,11.23
2022-09-29T18:44:30.055Z,13.65
2022-09-29T18:47:19.249Z,8.13
2022-09-29T18:49:53.199Z,7.30
2022-09-29T18:52:41.254Z,6.90
2022-09-29T18:55:24.228Z,7.93
2022-09-29T18:58:06.322Z,5.78
2022-09-29T19:00:48.248Z,8.57
2022-09-29T19:03:30.855Z,7.22
2022-09-29T19:06:22.246Z,7.00
2022-09-29T19:09:03.358Z,7.20
2022-09-29T19:11:51.267Z,10.07
2022-09-29T19:14:32.237Z,10.07
2022-09-29T19:17:30.198Z,8.07
2022-09-29T19:20:19.257Z,9.63
2022-09-29T19:22:53.350Z,12.95
2022-09-29T19:25:42.241Z,11.43
2022-09-29T19:28:17.303Z,8.95
2022-09-29T19:31:11.307Z,7.78
2022-09-29T19:33:46.429Z,7.75
2022-09-29T19:36:33.236Z,7.70
2022-09-29T19:39:08.061Z,7.60
2022-09-29T19:41:55.248Z,8.20
2022-09-29T19:44:29.745Z,8.00
2022-09-29T19:47:17.256Z,8.68
2022-09-29T19:50:11.275Z,11.13
2022-09-29T19:52:58.304Z,11.20
2022-09-29T19:55:32.298Z,13.70
2022-09-29T19:58:19.255Z,12.27
2022-09-29T20:01:03.291Z,10.73
2022-09-29T20:03:43.251Z,7.93
2022-09-29T20:06:24.331Z,7.97
2022-09-29T20:09:12.318Z,10.68
2022-09-29T20:11:49.942Z,7.90
2022-09-29T20:14:42.249Z,7.43
2022-09-29T20:17:23.252Z,9.27
2022-09-29T20:20:18.226Z,8.35
2022-09-29T20:23:07.248Z,8.80
2022-09-29T20:25:48.251Z,9.20
2022-09-29T20:28:36.245Z,9.05
2022-09-29T20:31:17.319Z,8.63
2022-09-29T20:34:06.237Z,9.82
2022-09-29T20:36:55.249Z,9.27
2022-09-29T20:39:36.273Z,10.13
2022-09-29T20:42:17.342Z,11.45
2022-09-29T20:45:02.246Z,11.30
2022-09-29T20:47:43.363Z,9.30
2022-09-29T20:50:24.284Z,8.38
2022-09-29T20:53:05.434Z,8.60
2022-09-29T20:55:47.269Z,8.30
2022-09-29T20:58:28.344Z,13.05
2022-09-29T21:01:38.345Z,11.25
2022-09-29T21:04:28.261Z,12.10
2022-09-29T21:07:02.223Z,11.40
2022-09-29T21:09:50.291Z,11.25
2022-09-29T21:12:31.263Z,11.95
2022-09-29T21:15:12.412Z,16.75
2022-09-29T21:17:53.259Z,17.77
2022-09-29T21:20:34.309Z,17.38
2022-09-29T21:23:14.269Z,16.25
2022-09-29T21:25:55.610Z,12.52
2022-09-29T21:28:37.282Z,11.70
2022-09-29T21:31:19.598Z,11.15
2022-09-29T21:34:01.284Z,12.73
2022-09-29T21:36:43.436Z,12.13
2022-09-29T21:39:24.262Z,13.07
2022-09-29T21:42:05.397Z,15.38
2022-09-29T21:44:46.263Z,17.27
2022-09-29T21:47:47.285Z,12.07
2022-09-29T21:50:34.269Z,12.07
2022-09-29T21:53:15.340Z,12.98
2022-09-29T21:55:55.273Z,12.32
2022-09-29T21:58:36.369Z,11.68
2022-09-29T22:01:17.350Z,14.07
2022-09-29T22:03:58.402Z,15.75
2022-09-29T22:06:39.272Z,11.30
2022-09-29T22:09:25.422Z,16.83
2022-09-29T22:12:06.248Z,14.85
2022-09-29T22:14:54.270Z,12.77
2022-09-29T22:17:28.183Z,12.40
2022-09-29T22:20:16.267Z,11.68
2022-09-29T22:22:56.255Z,10.38
2022-09-29T22:25:37.343Z,10.88
2022-09-29T22:28:18.279Z,11.45
2022-09-29T22:31:09.371Z,12.82
2022-09-29T22:33:45.133Z,11.35
2022-09-29T22:36:33.258Z,12.57
2022-09-29T22:39:07.443Z,13.80
2022-09-29T22:41:55.258Z,14.15
2022-09-29T22:44:29.260Z,11.55
2022-09-29T22:47:17.303Z,12.95
2022-09-29T22:49:51.222Z,12.38
2022-09-29T22:52:39.263Z,13.00
2022-09-29T22:55:13.218Z,12.57
2022-09-29T22:58:01.257Z,13.45
2022-09-29T23:00:35.274Z,12.98
2022-09-29T23:03:23.279Z,13.73
2022-09-29T23:06:18.274Z,15.40
2022-09-29T23:09:05.299Z,11.25
2022-09-29T23:11:39.328Z,12.30
2022-09-29T23:14:28.275Z,13.20
2022-09-29T23:17:02.337Z,13.27
2022-09-29T23:19:50.300Z,12.35
2022-09-29T23:22:24.345Z,13.23
2022-09-29T23:25:12.304Z,12.88
2022-09-29T23:27:46.373Z,11.52
2022-09-29T23:30:34.265Z,10.13
2022-09-29T23:33:15.275Z,11.70
2022-09-29T23:36:09.258Z,12.82
2022-09-29T23:39:15.358Z,11.95
2022-09-29T23:41:51.776Z,11.35
2022-09-29T23:44:39.271Z,11.30
2022-09-29T23:47:13.335Z,11.35
2022-09-29T23:50:00.279Z,12.68
2022-09-29T23:52:41.303Z,10.65
2022-09-29T23:55:35.266Z,12.95
2022-09-29T23:58:22.293Z,10.95
